ACA174 CYEG-CYYZ
Flight info
| Callsign | ACA174 |
|---|---|
| Flight time | N/A |
| Altitude | 35000 |
| Route | RYLEY DCT TAGOT DCT MUTUR DCT KOBID DCT AGLIN DCT OTNIK BOXUM7 |
| Aircraft | A321/M-SDE3FGHIRWY/LB1 |
Departure
| Time | 2026-05-06 01:29 |
|---|---|
| Airport | Edmonton International Airport (CYEG) |
Arrival
| Time | N/A |
|---|---|
| Airport | Toronto Pearson International Airport (CYYZ) |
| Time | Latitude | Longitude | Altitude | Speed | Heading |
|---|---|---|---|---|---|
| 2026-05-06 01:16 | 53.30604 | -113.58485 | 2338 ft | 0 kts | 70° |
| 2026-05-06 01:22 | 53.30603 | -113.58488 | 2338 ft | 1 kts | 70° |
| 2026-05-06 01:22 | 53.30598 | -113.58511 | 2338 ft | 2 kts | 69° |
| 2026-05-06 01:22 | 53.30593 | -113.58535 | 2337 ft | 2 kts | 70° |
| 2026-05-06 01:23 | 53.30588 | -113.58559 | 2336 ft | 2 kts | 69° |
| 2026-05-06 01:23 | 53.30584 | -113.58577 | 2335 ft | 0 kts | 70° |
| 2026-05-06 01:23 | 53.30578 | -113.58595 | 2334 ft | 2 kts | 36° |
| 2026-05-06 01:23 | 53.30564 | -113.58604 | 2334 ft | 2 kts | 355° |
| 2026-05-06 01:24 | 53.30551 | -113.58597 | 2334 ft | 0 kts | 320° |
| 2026-05-06 01:24 | 53.30547 | -113.58589 | 2335 ft | 1 kts | 314° |
| 2026-05-06 01:24 | 53.30545 | -113.58587 | 2335 ft | 0 kts | 315° |
| 2026-05-06 01:26 | 53.30559 | -113.58610 | 2334 ft | 5 kts | 315° |
| 2026-05-06 01:26 | 53.30597 | -113.58679 | 2331 ft | 10 kts | 296° |
| 2026-05-06 01:26 | 53.30570 | -113.58798 | 2329 ft | 13 kts | 220° |
| 2026-05-06 01:26 | 53.30536 | -113.58934 | 2326 ft | 15 kts | 311° |
| 2026-05-06 01:27 | 53.30611 | -113.59071 | 2323 ft | 16 kts | 317° |
| 2026-05-06 01:27 | 53.30699 | -113.59213 | 2321 ft | 17 kts | 314° |
| 2026-05-06 01:27 | 53.30782 | -113.59350 | 2319 ft | 12 kts | 317° |
| 2026-05-06 01:27 | 53.30850 | -113.59460 | 2318 ft | 14 kts | 314° |
| 2026-05-06 01:28 | 53.30908 | -113.59560 | 2317 ft | 7 kts | 330° |
| 2026-05-06 01:28 | 53.30971 | -113.59524 | 2316 ft | 25 kts | 34° |
| 2026-05-06 01:28 | 53.31325 | -113.59110 | 2316 ft | 97 kts | 34° |
| 2026-05-06 01:28 | 53.32059 | -113.58254 | 2322 ft | 157 kts | 35° |
| 2026-05-06 01:29 | 53.33064 | -113.57104 | 2648 ft | 179 kts | 34° |
| 2026-05-06 01:29 | 53.34079 | -113.56014 | 3372 ft | 177 kts | 33° |
| 2026-05-06 01:29 | 53.35083 | -113.54874 | 4074 ft | 173 kts | 37° |
| 2026-05-06 01:29 | 53.36077 | -113.53633 | 4416 ft | 182 kts | 37° |
| 2026-05-06 01:30 | 53.37131 | -113.52336 | 4682 ft | 195 kts | 36° |
| 2026-05-06 01:30 | 53.38268 | -113.50960 | 4953 ft | 208 kts | 36° |
| 2026-05-06 01:30 | 53.39469 | -113.49427 | 5204 ft | 224 kts | 45° |
| 2026-05-06 01:30 | 53.40168 | -113.47027 | 5378 ft | 244 kts | 84° |
| 2026-05-06 01:31 | 53.39958 | -113.44122 | 5700 ft | 261 kts | 102° |
| 2026-05-06 01:31 | 53.39490 | -113.41125 | 6167 ft | 271 kts | 103° |
| 2026-05-06 01:31 | 53.39035 | -113.38087 | 6792 ft | 274 kts | 101° |
| 2026-05-06 01:31 | 53.38613 | -113.34965 | 7432 ft | 277 kts | 100° |
| 2026-05-06 01:32 | 53.38224 | -113.31815 | 8082 ft | 281 kts | 99° |
| 2026-05-06 01:32 | 53.37850 | -113.28586 | 8726 ft | 284 kts | 98° |
| 2026-05-06 01:32 | 53.37490 | -113.25346 | 9367 ft | 287 kts | 97° |
| 2026-05-06 01:32 | 53.37129 | -113.22037 | 10002 ft | 291 kts | 96° |
| 2026-05-06 01:33 | 53.36771 | -113.18690 | 10485 ft | 300 kts | 96° |